createdAt,value
2023-05-04T00:00:55.593Z,11.18
2023-05-04T00:03:23.948Z,11.02
2023-05-04T00:05:52.698Z,10.99
2023-05-04T00:08:22.286Z,10.99
2023-05-04T00:10:50.460Z,10.92
2023-05-04T00:13:18.729Z,10.86
2023-05-04T00:15:46.880Z,10.70
2023-05-04T00:18:15.091Z,10.40
2023-05-04T00:20:43.890Z,10.54
2023-05-04T00:23:12.356Z,10.69
2023-05-04T00:25:42.124Z,10.56
2023-05-04T00:28:10.745Z,10.56
2023-05-04T00:30:38.828Z,10.26
2023-05-04T00:33:06.874Z,10.46
2023-05-04T00:35:37.344Z,10.36
2023-05-04T00:38:05.466Z,10.38
2023-05-04T00:40:35.199Z,10.24
2023-05-04T00:43:05.107Z,10.20
2023-05-04T00:45:33.567Z,10.13
2023-05-04T00:48:04.024Z,10.14
2023-05-04T00:50:32.675Z,10.19
2023-05-04T00:53:06.899Z,10.29
2023-05-04T00:55:37.807Z,10.20
2023-05-04T00:58:08.267Z,10.16
2023-05-04T01:00:37.010Z,10.20
2023-05-04T01:03:05.682Z,10.11
2023-05-04T01:05:39.958Z,10.07
2023-05-04T01:08:15.144Z,10.25
2023-05-04T01:10:51.190Z,10.18
2023-05-04T01:13:23.647Z,10.24
2023-05-04T01:15:53.059Z,10.36
2023-05-04T01:18:21.281Z,10.23
2023-05-04T01:20:59.725Z,10.34
2023-05-04T01:23:29.356Z,10.06
2023-05-04T01:26:07.332Z,10.02
2023-05-04T01:28:47.555Z,9.84
2023-05-04T01:31:17.411Z,9.95
2023-05-04T01:33:46.573Z,9.79
2023-05-04T01:36:15.154Z,9.74
2023-05-04T01:38:45.071Z,9.84
2023-05-04T01:41:13.080Z,9.73
2023-05-04T01:43:41.664Z,9.83
2023-05-04T01:46:10.200Z,9.74
2023-05-04T01:48:38.591Z,9.91
2023-05-04T01:51:07.009Z,9.64
2023-05-04T01:53:35.356Z,9.55
2023-05-04T01:56:05.328Z,9.56
2023-05-04T01:58:33.355Z,9.36
2023-05-04T02:01:01.889Z,9.48
2023-05-04T02:03:31.400Z,9.52
2023-05-04T02:05:59.892Z,9.44
2023-05-04T02:08:28.340Z,9.22
2023-05-04T02:10:56.424Z,9.52
2023-05-04T02:13:25.868Z,9.66
2023-05-04T02:15:54.078Z,9.59
2023-05-04T02:18:22.082Z,9.59
2023-05-04T02:20:50.369Z,9.66
2023-05-04T02:23:18.664Z,9.73
2023-05-04T02:25:46.798Z,9.51
2023-05-04T02:28:15.020Z,9.30
2023-05-04T02:30:45.020Z,9.44
2023-05-04T02:33:13.139Z,9.46
2023-05-04T02:35:41.502Z,9.40
2023-05-04T02:38:10.206Z,9.30
2023-05-04T02:40:38.231Z,9.36
2023-05-04T02:43:06.275Z,9.27
2023-05-04T02:45:34.715Z,9.36
2023-05-04T02:48:04.364Z,9.46
2023-05-04T02:50:32.618Z,9.49
2023-05-04T02:53:01.135Z,9.38
2023-05-04T02:55:29.450Z,9.42
2023-05-04T02:57:57.457Z,9.32
2023-05-04T03:00:26.126Z,9.49
2023-05-04T03:02:54.203Z,9.35
2023-05-04T03:05:23.934Z,9.46
2023-05-04T03:07:52.329Z,9.32
2023-05-04T03:10:20.436Z,8.82
2023-05-04T03:12:48.597Z,8.99
2023-05-04T03:15:16.969Z,8.79
2023-05-04T03:17:45.104Z,8.89
2023-05-04T03:20:14.608Z,8.68
2023-05-04T03:22:44.391Z,8.67
2023-05-04T03:25:12.516Z,8.90
2023-05-04T03:27:40.963Z,9.30
2023-05-04T03:30:10.118Z,9.20
2023-05-04T03:32:38.180Z,8.87
2023-05-04T03:35:07.416Z,8.85
2023-05-04T03:37:39.982Z,8.84
2023-05-04T03:40:10.693Z,9.15
2023-05-04T03:42:39.405Z,8.99
2023-05-04T03:45:09.130Z,8.85
2023-05-04T03:47:37.232Z,9.11
2023-05-04T03:50:06.545Z,9.16
2023-05-04T03:52:35.053Z,9.21
2023-05-04T03:55:03.168Z,9.08
2023-05-04T03:57:32.853Z,9.11
2023-05-04T04:00:01.318Z,9.00
2023-05-04T04:02:29.559Z,8.87
2023-05-04T04:04:58.016Z,8.91
2023-05-04T04:07:26.517Z,9.00
2023-05-04T04:09:54.618Z,9.08
2023-05-04T04:12:22.802Z,9.16
2023-05-04T04:14:53.387Z,9.20
2023-05-04T04:17:21.782Z,9.35
2023-05-04T04:19:50.028Z,9.37
2023-05-04T04:22:18.401Z,9.46
2023-05-04T04:24:46.817Z,9.53
2023-05-04T04:27:15.031Z,9.37
2023-05-04T04:29:43.218Z,9.47
2023-05-04T04:32:12.689Z,9.53
2023-05-04T04:34:40.949Z,9.70
2023-05-04T04:37:09.400Z,9.59
2023-05-04T04:39:37.832Z,9.85
2023-05-04T04:42:05.966Z,9.63
2023-05-04T04:44:34.264Z,9.69
2023-05-04T04:47:02.629Z,9.73
2023-05-04T04:49:32.345Z,9.66
2023-05-04T04:52:02.490Z,9.48
2023-05-04T04:54:31.749Z,9.35
2023-05-04T04:57:00.808Z,9.48
2023-05-04T04:59:29.036Z,9.45
2023-05-04T05:01:58.762Z,9.56
2023-05-04T05:04:29.488Z,9.90
2023-05-04T05:06:59.381Z,9.79
2023-05-04T05:09:27.514Z,9.71
2023-05-04T05:11:55.894Z,9.75
2023-05-04T05:14:24.015Z,9.59
2023-05-04T05:16:52.385Z,9.63
2023-05-04T05:19:20.725Z,9.76
2023-05-04T05:21:49.355Z,9.98
2023-05-04T05:24:18.806Z,9.66
2023-05-04T05:26:47.056Z,9.84
2023-05-04T05:29:15.135Z,9.86
2023-05-04T05:31:43.131Z,9.99
2023-05-04T05:34:14.509Z,10.37
2023-05-04T05:36:42.961Z,10.49
2023-05-04T05:39:11.476Z,10.72
2023-05-04T05:41:41.373Z,10.73
2023-05-04T05:44:10.538Z,10.85
2023-05-04T05:46:40.727Z,10.35
2023-05-04T05:49:08.937Z,10.74
2023-05-04T05:51:36.914Z,10.84
2023-05-04T05:54:05.183Z,10.62
2023-05-04T05:56:33.607Z,10.82
2023-05-04T05:59:03.198Z,11.09
2023-05-04T06:01:31.414Z,10.97
2023-05-04T06:04:02.520Z,10.67
2023-05-04T06:06:30.902Z,11.05
2023-05-04T06:09:00.573Z,11.05
2023-05-04T06:11:28.808Z,11.20
2023-05-04T06:13:56.898Z,11.20
2023-05-04T06:16:26.804Z,11.28
2023-05-04T06:18:55.192Z,11.31
2023-05-04T06:21:23.332Z,11.41
2023-05-04T06:23:51.484Z,11.32
2023-05-04T06:26:20.185Z,11.30
2023-05-04T06:28:48.328Z,11.43
2023-05-04T06:31:16.702Z,11.83
2023-05-04T06:33:46.340Z,11.80
2023-05-04T06:36:14.655Z,11.87
2023-05-04T06:38:43.060Z,11.56
2023-05-04T06:41:11.451Z,11.65
2023-05-04T06:43:42.218Z,11.63
2023-05-04T06:46:10.594Z,11.83
2023-05-04T06:48:38.701Z,11.89
2023-05-04T06:51:08.168Z,11.89
2023-05-04T06:53:36.982Z,11.97
2023-05-04T06:56:05.636Z,11.94
2023-05-04T06:58:33.648Z,11.99
2023-05-04T07:01:02.169Z,12.24
2023-05-04T07:03:30.823Z,12.23
2023-05-04T07:05:59.229Z,12.11
2023-05-04T07:08:32.993Z,12.11
2023-05-04T07:11:01.143Z,12.19
2023-05-04T07:13:29.520Z,12.58
2023-05-04T07:15:57.915Z,12.48
2023-05-04T07:18:26.405Z,12.56
2023-05-04T07:21:01.713Z,12.53
2023-05-04T07:23:40.983Z,12.44
2023-05-04T07:26:09.312Z,12.52
2023-05-04T07:28:38.762Z,12.26
2023-05-04T07:31:07.117Z,12.41
2023-05-04T07:33:35.276Z,12.65
2023-05-04T07:36:03.399Z,12.60
2023-05-04T07:38:32.048Z,12.74
2023-05-04T07:41:02.098Z,12.77
2023-05-04T07:43:30.492Z,12.61
2023-05-04T07:45:59.033Z,12.81
2023-05-04T07:48:27.774Z,12.63
2023-05-04T07:50:55.964Z,12.77
2023-05-04T07:53:25.668Z,12.75
2023-05-04T07:55:54.494Z,12.92
2023-05-04T07:58:24.087Z,13.06
2023-05-04T08:00:52.469Z,13.29
2023-05-04T08:03:21.172Z,13.65
2023-05-04T08:05:49.284Z,13.81
2023-05-04T08:08:17.419Z,14.10
2023-05-04T08:10:45.693Z,13.79
2023-05-04T08:13:13.772Z,13.54
2023-05-04T08:15:44.278Z,13.59
2023-05-04T08:18:12.599Z,13.60
2023-05-04T08:20:40.993Z,13.63
2023-05-04T08:23:09.397Z,13.86
2023-05-04T08:25:37.570Z,13.91
2023-05-04T08:28:06.538Z,13.84
2023-05-04T08:30:34.828Z,13.86
2023-05-04T08:33:04.906Z,13.80
2023-05-04T08:35:36.006Z,13.84
2023-05-04T08:38:04.157Z,14.11
2023-05-04T08:40:32.485Z,14.33
2023-05-04T08:43:01.144Z,14.09
2023-05-04T08:45:32.341Z,14.29
2023-05-04T08:48:01.044Z,14.66
2023-05-04T08:50:30.956Z,14.43
2023-05-04T08:53:01.124Z,14.48
2023-05-04T08:55:29.577Z,14.23
2023-05-04T08:58:01.678Z,14.26
2023-05-04T09:00:30.860Z,14.19
2023-05-04T09:03:00.806Z,14.47
2023-05-04T09:05:30.854Z,14.99
2023-05-04T09:07:59.460Z,15.16
2023-05-04T09:10:29.662Z,14.99
2023-05-04T09:12:58.420Z,14.82
2023-05-04T09:15:26.653Z,14.73
2023-05-04T09:17:59.440Z,14.78
2023-05-04T09:20:27.612Z,15.23
2023-05-04T09:23:07.187Z,14.95
2023-05-04T09:25:36.419Z,15.09
2023-05-04T09:28:04.917Z,15.02
2023-05-04T09:30:33.363Z,15.13
2023-05-04T09:33:04.445Z,14.80
2023-05-04T09:35:33.955Z,14.98
2023-05-04T09:38:04.746Z,15.27
2023-05-04T09:40:33.758Z,15.29
2023-05-04T09:43:02.200Z,15.35
2023-05-04T09:45:40.366Z,15.06
2023-05-04T09:48:19.187Z,15.03
2023-05-04T09:50:53.011Z,15.28
2023-05-04T09:53:25.320Z,15.40
2023-05-04T09:56:06.469Z,15.16
2023-05-04T09:58:36.566Z,15.49
2023-05-04T10:01:05.817Z,15.33
2023-05-04T10:03:34.446Z,15.49
2023-05-04T10:06:05.889Z,15.31
2023-05-04T10:08:35.950Z,15.22
2023-05-04T10:11:04.220Z,15.51
2023-05-04T10:13:32.594Z,15.46
2023-05-04T10:16:15.440Z,15.59
2023-05-04T10:19:05.194Z,15.38
2023-05-04T10:21:47.374Z,15.60
2023-05-04T10:24:30.072Z,15.65
2023-05-04T10:27:07.288Z,15.61
2023-05-04T10:29:36.149Z,15.49
2023-05-04T10:32:04.943Z,15.53
2023-05-04T10:34:34.585Z,15.74
2023-05-04T10:37:04.132Z,15.50
2023-05-04T10:39:36.386Z,15.82
2023-05-04T10:42:05.612Z,16.06
2023-05-04T10:44:35.456Z,15.98
2023-05-04T10:47:06.900Z,15.49
2023-05-04T10:49:36.111Z,15.60
2023-05-04T10:52:12.800Z,15.40
2023-05-04T10:54:44.185Z,15.69
2023-05-04T10:57:13.931Z,15.42
2023-05-04T10:59:42.501Z,15.43
2023-05-04T11:02:10.869Z,15.43
2023-05-04T11:04:39.643Z,15.53
2023-05-04T11:07:09.027Z,15.37
2023-05-04T11:09:38.857Z,15.66
2023-05-04T11:12:11.184Z,15.52
2023-05-04T11:14:43.346Z,15.59
2023-05-04T11:19:54.333Z,15.91
2023-05-04T11:22:23.327Z,15.91
2023-05-04T11:24:51.668Z,15.84
2023-05-04T11:27:25.811Z,16.06
2023-05-04T11:29:57.909Z,15.82
2023-05-04T11:32:36.090Z,15.86
2023-05-04T11:35:06.596Z,16.03
2023-05-04T11:37:40.902Z,15.96
2023-05-04T11:40:14.226Z,16.40
2023-05-04T11:42:44.712Z,16.11
2023-05-04T11:45:17.603Z,16.36
2023-05-04T11:47:46.794Z,16.32
2023-05-04T11:50:16.898Z,16.26
2023-05-04T11:52:45.929Z,16.23
2023-05-04T11:55:25.649Z,16.26
2023-05-04T11:57:59.671Z,16.23
2023-05-04T12:00:42.078Z,16.50
2023-05-04T12:03:13.070Z,16.17
2023-05-04T12:05:48.225Z,16.18
2023-05-04T12:08:27.459Z,16.23
2023-05-04T12:11:10.684Z,16.21
2023-05-04T12:13:40.862Z,16.34
2023-05-04T12:16:13.268Z,16.26
2023-05-04T12:18:42.369Z,16.28
2023-05-04T12:21:12.092Z,16.13
2023-05-04T12:23:41.200Z,16.35
2023-05-04T12:26:10.392Z,16.60
2023-05-04T12:28:41.343Z,16.73
2023-05-04T12:31:10.394Z,16.25
2023-05-04T12:33:38.946Z,16.18
2023-05-04T12:36:08.275Z,16.58
2023-05-04T12:38:37.706Z,16.79
2023-05-04T12:41:06.442Z,16.55
2023-05-04T12:43:34.824Z,16.07
2023-05-04T12:46:04.840Z,16.21
2023-05-04T12:48:33.280Z,16.47
2023-05-04T12:51:04.057Z,16.87
2023-05-04T12:53:33.238Z,16.96
2023-05-04T12:56:03.779Z,17.22
2023-05-04T12:58:32.624Z,17.21
2023-05-04T13:01:01.138Z,17.03
2023-05-04T13:03:31.171Z,16.84
2023-05-04T13:05:59.675Z,16.91
2023-05-04T13:08:28.240Z,16.71
2023-05-04T13:10:56.528Z,16.59
2023-05-04T13:13:28.850Z,16.82
2023-05-04T13:15:57.606Z,17.18
2023-05-04T13:18:27.776Z,17.15
2023-05-04T13:20:57.804Z,17.09
2023-05-04T13:23:26.504Z,17.13
2023-05-04T13:25:57.656Z,16.90
2023-05-04T13:28:25.881Z,16.79
2023-05-04T13:30:54.493Z,16.84
2023-05-04T13:35:58.741Z,16.94
2023-05-04T13:38:27.438Z,16.91
2023-05-04T13:40:56.468Z,16.71
2023-05-04T13:43:25.571Z,16.41
2023-05-04T13:45:53.802Z,16.65
2023-05-04T13:48:21.977Z,16.65
2023-05-04T13:50:50.581Z,16.46
2023-05-04T13:53:20.328Z,16.58
2023-05-04T13:55:48.633Z,16.56
2023-05-04T13:58:17.396Z,16.74
2023-05-04T14:00:45.651Z,16.79
2023-05-04T14:03:13.755Z,17.04
2023-05-04T14:05:42.834Z,17.10
2023-05-04T14:08:10.986Z,16.55
2023-05-04T14:10:40.658Z,16.49
2023-05-04T14:13:08.970Z,16.94
2023-05-04T14:15:37.125Z,16.75
2023-05-04T14:18:05.584Z,16.79
2023-05-04T14:20:34.068Z,16.76
2023-05-04T14:23:02.511Z,16.48
2023-05-04T14:25:30.676Z,16.68
2023-05-04T14:28:00.902Z,16.73
2023-05-04T14:30:28.939Z,16.94
2023-05-04T14:32:58.403Z,16.55
2023-05-04T14:35:27.126Z,16.32
2023-05-04T14:37:55.607Z,16.39
2023-05-04T14:40:24.017Z,16.39
2023-05-04T14:42:52.551Z,16.23
2023-05-04T14:45:22.725Z,16.30
2023-05-04T14:47:50.840Z,16.43
2023-05-04T14:50:19.401Z,16.63
2023-05-04T14:52:47.712Z,16.62
2023-05-04T14:55:16.040Z,16.72
2023-05-04T14:57:44.532Z,16.66
2023-05-04T15:00:13.812Z,16.60
2023-05-04T15:02:43.459Z,16.42
2023-05-04T15:05:12.800Z,16.23
2023-05-04T15:07:40.980Z,16.11
2023-05-04T15:10:10.911Z,16.00
2023-05-04T15:12:44.900Z,15.96
2023-05-04T15:15:13.818Z,15.63
2023-05-04T15:17:43.924Z,15.64
2023-05-04T15:20:14.722Z,15.73
2023-05-04T15:22:43.250Z,15.50
2023-05-04T15:25:12.322Z,15.55
2023-05-04T15:27:41.035Z,15.54
2023-05-04T15:30:10.220Z,15.47
2023-05-04T15:32:38.519Z,15.39
2023-05-04T15:35:08.923Z,15.32
2023-05-04T15:37:37.077Z,15.59
2023-05-04T15:40:06.226Z,15.43
2023-05-04T15:42:34.842Z,15.43
2023-05-04T15:45:03.442Z,15.28
2023-05-04T15:47:37.852Z,15.30
2023-05-04T15:50:08.509Z,15.42
2023-05-04T15:52:37.586Z,15.49
2023-05-04T15:55:23.285Z,15.27
2023-05-04T15:57:52.738Z,15.43
2023-05-04T16:00:22.292Z,15.37
2023-05-04T16:02:52.031Z,15.45
2023-05-04T16:05:22.271Z,15.35
2023-05-04T16:07:50.936Z,15.30
2023-05-04T16:10:19.293Z,15.34
2023-05-04T16:12:48.082Z,15.49
2023-05-04T16:15:16.343Z,15.46
2023-05-04T16:17:44.470Z,15.31
2023-05-04T16:20:13.442Z,15.26
2023-05-04T16:22:42.997Z,15.25
2023-05-04T16:25:11.854Z,14.92
2023-05-04T16:27:40.250Z,15.15
2023-05-04T16:30:10.111Z,15.05
2023-05-04T16:32:38.869Z,15.14
2023-05-04T16:35:09.504Z,15.12
2023-05-04T16:37:38.363Z,15.21
2023-05-04T16:40:16.354Z,15.00
2023-05-04T16:42:44.803Z,14.72
2023-05-04T16:45:14.773Z,14.86
2023-05-04T16:47:43.525Z,14.80
2023-05-04T16:50:12.565Z,14.50
2023-05-04T16:52:41.479Z,14.47
2023-05-04T16:55:12.873Z,14.36
2023-05-04T16:57:42.871Z,14.32
2023-05-04T17:00:13.555Z,14.45
2023-05-04T17:02:42.264Z,14.11
2023-05-04T17:05:11.488Z,14.22
2023-05-04T17:07:42.354Z,14.36
2023-05-04T17:10:12.329Z,14.07
2023-05-04T17:12:40.886Z,14.15
2023-05-04T17:15:12.068Z,14.01
2023-05-04T17:17:40.383Z,14.10
2023-05-04T17:20:14.937Z,14.08
2023-05-04T17:22:43.728Z,14.17
2023-05-04T17:25:13.228Z,13.95
2023-05-04T17:27:44.019Z,14.00
2023-05-04T17:30:14.828Z,14.05
2023-05-04T17:32:43.171Z,13.76
2023-05-04T17:35:24.524Z,13.41
2023-05-04T17:38:21.044Z,13.39
2023-05-04T17:40:49.225Z,13.38
2023-05-04T17:43:17.423Z,13.38
2023-05-04T17:45:47.190Z,13.47
2023-05-04T17:48:16.410Z,13.29
2023-05-04T17:50:45.831Z,13.30
2023-05-04T17:53:14.324Z,13.26
2023-05-04T17:55:42.728Z,13.30
2023-05-04T17:58:10.982Z,13.35
2023-05-04T18:00:39.208Z,13.36
2023-05-04T18:03:09.185Z,13.41
2023-05-04T18:05:37.989Z,13.26
2023-05-04T18:08:07.032Z,13.23
2023-05-04T18:10:38.204Z,13.13
2023-05-04T18:13:06.978Z,12.95
2023-05-04T18:15:35.705Z,13.01
2023-05-04T18:18:04.067Z,13.13
2023-05-04T18:20:45.751Z,13.13
2023-05-04T18:23:14.031Z,13.16
2023-05-04T18:25:42.167Z,12.99
2023-05-04T18:28:10.320Z,12.89
2023-05-04T18:30:39.466Z,12.86
2023-05-04T18:33:08.274Z,12.76
2023-05-04T18:35:38.170Z,12.82
2023-05-04T18:38:07.575Z,12.68
2023-05-04T18:40:39.566Z,12.69
2023-05-04T18:43:07.942Z,12.51
2023-05-04T18:45:36.197Z,12.49
2023-05-04T18:48:08.667Z,12.60
2023-05-04T18:50:42.778Z,12.52
2023-05-04T18:53:11.321Z,12.66
2023-05-04T18:55:42.824Z,12.50
2023-05-04T18:58:14.367Z,12.46
2023-05-04T19:00:46.377Z,12.32
2023-05-04T19:03:16.384Z,12.30
2023-05-04T19:05:46.352Z,12.35
2023-05-04T19:08:14.439Z,12.27
2023-05-04T19:10:43.675Z,12.27
2023-05-04T19:13:12.259Z,12.32
2023-05-04T19:15:40.705Z,12.17
2023-05-04T19:18:10.563Z,12.20
2023-05-04T19:20:38.968Z,12.14
2023-05-04T19:23:10.569Z,12.23
2023-05-04T19:25:39.357Z,12.04
2023-05-04T19:28:09.659Z,11.95
2023-05-04T19:30:39.176Z,12.14
2023-05-04T19:33:13.752Z,11.87
2023-05-04T19:35:43.538Z,11.77
2023-05-04T19:38:15.395Z,11.91
2023-05-04T19:40:43.567Z,11.90
2023-05-04T19:43:11.880Z,11.84
2023-05-04T19:45:41.134Z,11.88
2023-05-04T19:48:10.110Z,11.98
2023-05-04T19:50:38.649Z,11.90
2023-05-04T19:53:07.382Z,11.88
2023-05-04T19:55:37.527Z,11.85
2023-05-04T19:58:10.852Z,11.73
2023-05-04T20:00:41.930Z,11.53
2023-05-04T20:03:10.672Z,11.42
2023-05-04T20:05:39.281Z,11.37
2023-05-04T20:08:07.424Z,11.38
2023-05-04T20:10:37.284Z,11.19
2023-05-04T20:13:07.210Z,11.20
2023-05-04T20:15:35.425Z,11.17
2023-05-04T20:18:03.896Z,11.19
2023-05-04T20:20:34.538Z,11.27
2023-05-04T20:23:03.738Z,11.11
2023-05-04T20:25:32.410Z,11.13
2023-05-04T20:28:02.297Z,11.28
2023-05-04T20:30:31.101Z,11.06
2023-05-04T20:32:59.777Z,10.96
2023-05-04T20:35:28.069Z,10.90
2023-05-04T20:37:56.409Z,11.12
2023-05-04T20:40:25.488Z,10.88
2023-05-04T20:42:53.686Z,10.84
2023-05-04T20:45:23.361Z,11.12
2023-05-04T20:47:51.578Z,11.16
2023-05-04T20:50:20.456Z,10.79
2023-05-04T20:52:48.588Z,10.63
2023-05-04T20:55:17.862Z,10.77
2023-05-04T20:57:46.350Z,10.96
2023-05-04T21:00:15.663Z,11.06
2023-05-04T21:02:45.373Z,11.03
2023-05-04T21:05:13.586Z,10.93
2023-05-04T21:07:41.719Z,11.01
2023-05-04T21:10:10.804Z,11.00
2023-05-04T21:12:39.042Z,10.77
2023-05-04T21:15:08.722Z,10.64
2023-05-04T21:17:37.339Z,10.62
2023-05-04T21:20:09.587Z,10.48
2023-05-04T21:22:37.873Z,10.50
2023-05-04T21:25:06.727Z,10.65
2023-05-04T21:27:34.919Z,10.86
2023-05-04T21:30:05.038Z,10.87
2023-05-04T21:32:33.379Z,10.67
2023-05-04T21:35:01.898Z,10.62
2023-05-04T21:37:32.008Z,10.51
2023-05-04T21:40:01.088Z,10.49
2023-05-04T21:42:29.488Z,10.55
2023-05-04T21:44:58.138Z,10.45
2023-05-04T21:47:26.509Z,10.42
2023-05-04T21:49:55.256Z,10.36
2023-05-04T21:52:23.948Z,10.38
2023-05-04T21:54:53.493Z,10.55
2023-05-04T21:57:21.773Z,10.67
2023-05-04T21:59:50.089Z,10.80
2023-05-04T22:02:18.231Z,10.69
2023-05-04T22:04:46.422Z,10.59
2023-05-04T22:07:15.597Z,10.52
2023-05-04T22:09:43.709Z,10.47
2023-05-04T22:12:13.415Z,10.68
2023-05-04T22:14:42.637Z,10.50
2023-05-04T22:17:10.971Z,10.72
2023-05-04T22:19:39.596Z,10.61
2023-05-04T22:22:07.801Z,10.45
2023-05-04T22:24:35.915Z,10.29
2023-05-04T22:27:04.632Z,10.47
2023-05-04T22:29:35.198Z,10.33
2023-05-04T22:32:03.496Z,10.52
2023-05-04T22:34:32.016Z,10.64
2023-05-04T22:37:00.311Z,10.70
2023-05-04T22:39:28.538Z,10.46
2023-05-04T22:41:56.712Z,10.43
2023-05-04T22:44:25.299Z,10.12
2023-05-04T22:46:54.708Z,10.46
2023-05-04T22:49:22.932Z,10.46
2023-05-04T22:51:51.172Z,10.49
2023-05-04T22:54:19.196Z,10.57
2023-05-04T22:56:47.312Z,10.65
2023-05-04T22:59:15.494Z,10.62
2023-05-04T23:01:43.922Z,10.65
2023-05-04T23:04:13.678Z,10.52
2023-05-04T23:06:41.920Z,10.35
2023-05-04T23:09:10.000Z,10.45
2023-05-04T23:11:38.365Z,10.39
2023-05-04T23:14:06.858Z,10.42
2023-05-04T23:16:35.660Z,10.56
2023-05-04T23:19:04.013Z,10.59
2023-05-04T23:21:33.838Z,10.59
2023-05-04T23:24:02.162Z,10.48
2023-05-04T23:26:30.554Z,10.45
2023-05-04T23:28:58.682Z,10.34
2023-05-04T23:31:26.963Z,10.35
2023-05-04T23:33:55.712Z,10.52
2023-05-04T23:36:23.810Z,10.56
2023-05-04T23:38:53.223Z,10.38
2023-05-04T23:41:21.501Z,10.32
2023-05-04T23:43:49.575Z,10.20
2023-05-04T23:46:18.020Z,10.12
2023-05-04T23:48:46.556Z,10.13
2023-05-04T23:51:14.795Z,10.33
2023-05-04T23:53:42.847Z,10.11
2023-05-04T23:56:13.132Z,10.14
2023-05-04T23:58:42.596Z,10.39
